Blue Ridge Observed Data For Previous 48 Hours

Caption
Day and Hour Reservoir Elevation (behind dam)* Tailwater Elevation (below dam)* Average Hourly Discharge*
9/20/2017 2 AM EDT 1,679.18 1,540.65 148
9/20/2017 3 AM EDT 1,679.25 1,540.65 148
9/20/2017 4 AM EDT 1,679.26 1,540.65 148
9/20/2017 5 AM EDT 1,679.27 1,540.65 148
9/20/2017 6 AM EDT 1,679.28 1,540.65 148
9/20/2017 7 AM EDT 1,679.26 1,540.65 148
9/20/2017 8 AM EDT 1,679.29 1,540.65 148
9/20/2017 9 AM EDT 1,679.26 1,540.66 148
9/20/2017 10 AM EDT 1,679.28 1,540.65 148
9/20/2017 11 AM EDT 1,679.22 1,540.65 148
9/20/2017 12 PM EDT 1,679.21 1,540.65 148
9/20/2017 1 PM EDT 1,679.24 1,540.65 148
9/20/2017 2 PM EDT 1,679.21 1,540.59 151
9/20/2017 3 PM EDT 1,679.23 1,543.11 1,473
9/20/2017 4 PM EDT 1,679.19 1,543.15 1,515
9/20/2017 5 PM EDT 1,679.14 1,543.22 1,543
9/20/2017 6 PM EDT 1,679.10 1,543.22 1,552
9/20/2017 7 PM EDT 1,679.11 1,543.24 1,559
9/20/2017 8 PM EDT 1,679.10 1,540.76 233
9/20/2017 9 PM EDT 1,679.12 1,540.66 148
9/20/2017 10 PM EDT 1,679.13 1,540.66 148
9/20/2017 11 PM EDT 1,679.14 1,540.66 148
9/21/2017 12 AM EDT 1,679.15 1,540.66 148
9/21/2017 1 AM EDT 1,679.10 1,540.66 148
9/21/2017 2 AM EDT 1,679.13 1,540.66 148
9/21/2017 3 AM EDT 1,679.13 1,540.66 148
9/21/2017 4 AM EDT 1,679.15 1,540.66 148
9/21/2017 5 AM EDT 1,679.17 1,540.66 148
9/21/2017 6 AM EDT 1,679.17 1,540.66 148
9/21/2017 7 AM EDT 1,679.18 1,540.67 148
9/21/2017 8 AM EDT 1,679.17 1,540.66 148
9/21/2017 9 AM EDT 1,679.16 1,540.66 148
9/21/2017 10 AM EDT 1,679.12 1,540.66 148
9/21/2017 11 AM EDT 1,679.17 1,540.67 148
9/21/2017 12 PM EDT 1,679.15 1,540.66 148
9/21/2017 1 PM EDT 1,679.15 1,540.66 148
9/21/2017 2 PM EDT 1,679.15 1,540.61 148
9/21/2017 3 PM EDT 1,679.12 1,543.19 1,649
9/21/2017 4 PM EDT 1,679.07 1,543.29 1,730
9/21/2017 5 PM EDT 1,679.05 1,543.28 1,733
9/21/2017 6 PM EDT 1,679.01 1,543.28 1,729
9/21/2017 7 PM EDT 1,678.95 1,543.29 1,732
9/21/2017 8 PM EDT 1,678.91 1,540.78 266
9/21/2017 9 PM EDT 1,678.92 1,540.65 148
9/21/2017 10 PM EDT 1,678.94 1,540.65 148
9/21/2017 11 PM EDT 1,678.94 1,540.65 148
9/22/2017 12 AM EDT 1,678.96 1,540.66 148
9/22/2017 1 AM EDT 1,678.99 1,540.65 148
9/22/2017 2 AM EDT 1,678.96 1,540.65 148
9/22/2017 3 AM EDT 1,678.96 1,540.65 148
9/22/2017 4 AM EDT 1,679.02 1,540.65 148
9/22/2017 5 AM EDT 1,679.00 1,540.66 148
9/22/2017 6 AM EDT 1,679.03 1,540.66 148
9/22/2017 7 AM EDT 1,678.99 1,540.66 148
9/22/2017 8 AM EDT 1,679.04 1,540.66 148
9/22/2017 9 AM EDT 1,679.00 1,540.66 148
9/22/2017 10 AM EDT 1,679.03 1,540.66 148
9/22/2017 11 AM EDT 1,679.03 1,540.66 148
9/22/2017 12 PM EDT 1,679.02 1,540.66 148
9/22/2017 1 PM EDT 1,678.98 1,543.18 1,522
9/22/2017 2 PM EDT 1,678.93 1,543.30 1,728
9/22/2017 3 PM EDT 1,678.88 1,543.30 1,725
9/22/2017 4 PM EDT 1,678.82 1,543.29 1,728
9/22/2017 5 PM EDT 1,678.80 1,543.30 1,725
9/22/2017 6 PM EDT 1,678.80 1,540.79 278
9/22/2017 7 PM EDT 1,678.82 1,540.66 148
9/22/2017 8 PM EDT 1,678.83 1,540.65 148
9/22/2017 9 PM EDT 1,678.78 1,540.65 148
9/22/2017 10 PM EDT 1,678.78 1,540.65 148
9/22/2017 11 PM EDT 1,678.78 1,540.65 148

Elevations are in feet above sea level. Discharges are in cubic feet per second and are reported at the end of the hour.